sensor_id;sensor_type;location;lat;lon;timestamp;temperature;humidity
16823;DHT22;8528;49.976;11.858;2022-07-10T00:00:11;12.00;99.90
16823;DHT22;8528;49.976;11.858;2022-07-10T00:02:41;12.00;99.90
16823;DHT22;8528;49.976;11.858;2022-07-10T00:05:10;12.00;99.90
16823;DHT22;8528;49.976;11.858;2022-07-10T00:07:46;12.10;99.90
16823;DHT22;8528;49.976;11.858;2022-07-10T00:10:13;12.20;99.90
16823;DHT22;8528;49.976;11.858;2022-07-10T00:12:48;12.20;99.90
16823;DHT22;8528;49.976;11.858;2022-07-10T00:15:15;12.30;99.90
16823;DHT22;8528;49.976;11.858;2022-07-10T00:17:45;12.40;99.90
16823;DHT22;8528;49.976;11.858;2022-07-10T00:20:13;12.60;99.90
16823;DHT22;8528;49.976;11.858;2022-07-10T00:22:54;12.70;99.90
16823;DHT22;8528;49.976;11.858;2022-07-10T00:25:28;12.70;99.90
16823;DHT22;8528;49.976;11.858;2022-07-10T00:27:55;12.60;99.90
16823;DHT22;8528;49.976;11.858;2022-07-10T00:30:22;12.60;99.90
16823;DHT22;8528;49.976;11.858;2022-07-10T00:32:49;12.50;99.90
16823;DHT22;8528;49.976;11.858;2022-07-10T00:35:16;12.40;99.90
16823;DHT22;8528;49.976;11.858;2022-07-10T00:37:42;12.40;99.90
16823;DHT22;8528;49.976;11.858;2022-07-10T00:40:12;12.30;99.90
16823;DHT22;8528;49.976;11.858;2022-07-10T00:42:39;12.30;99.90
16823;DHT22;8528;49.976;11.858;2022-07-10T00:45:06;12.30;99.90
16823;DHT22;8528;49.976;11.858;2022-07-10T00:47:33;12.20;99.90
16823;DHT22;8528;49.976;11.858;2022-07-10T00:50:00;12.20;99.90
16823;DHT22;8528;49.976;11.858;2022-07-10T00:52:27;12.30;99.90
16823;DHT22;8528;49.976;11.858;2022-07-10T00:54:57;12.30;99.90
16823;DHT22;8528;49.976;11.858;2022-07-10T00:57:24;12.20;99.90
16823;DHT22;8528;49.976;11.858;2022-07-10T00:59:51;12.20;99.90
16823;DHT22;8528;49.976;11.858;2022-07-10T01:02:26;12.10;99.90
16823;DHT22;8528;49.976;11.858;2022-07-10T01:05:16;12.10;99.90
16823;DHT22;8528;49.976;11.858;2022-07-10T01:07:46;12.20;99.90
16823;DHT22;8528;49.976;11.858;2022-07-10T01:10:13;12.30;99.90
16823;DHT22;8528;49.976;11.858;2022-07-10T01:12:44;12.30;99.90
16823;DHT22;8528;49.976;11.858;2022-07-10T01:15:11;12.30;99.90
16823;DHT22;8528;49.976;11.858;2022-07-10T01:17:38;12.30;99.90
16823;DHT22;8528;49.976;11.858;2022-07-10T01:20:09;12.30;99.90
16823;DHT22;8528;49.976;11.858;2022-07-10T01:22:36;12.30;99.90
16823;DHT22;8528;49.976;11.858;2022-07-10T01:25:04;12.20;99.90
16823;DHT22;8528;49.976;11.858;2022-07-10T01:27:35;12.20;99.90
16823;DHT22;8528;49.976;11.858;2022-07-10T01:30:02;12.10;99.90
16823;DHT22;8528;49.976;11.858;2022-07-10T01:32:42;12.10;99.90
16823;DHT22;8528;49.976;11.858;2022-07-10T01:35:09;12.10;99.90
16823;DHT22;8528;49.976;11.858;2022-07-10T01:37:39;12.20;99.90
16823;DHT22;8528;49.976;11.858;2022-07-10T01:40:07;12.10;99.90
16823;DHT22;8528;49.976;11.858;2022-07-10T01:42:34;12.20;99.90
16823;DHT22;8528;49.976;11.858;2022-07-10T01:45:01;12.30;99.90
16823;DHT22;8528;49.976;11.858;2022-07-10T01:47:32;12.30;99.90
16823;DHT22;8528;49.976;11.858;2022-07-10T01:50:02;12.40;99.90
16823;DHT22;8528;49.976;11.858;2022-07-10T01:52:32;12.30;99.90
16823;DHT22;8528;49.976;11.858;2022-07-10T02:02:35;12.20;99.90
16823;DHT22;8528;49.976;11.858;2022-07-10T02:05:02;12.20;99.90
16823;DHT22;8528;49.976;11.858;2022-07-10T02:07:29;12.10;99.90
16823;DHT22;8528;49.976;11.858;2022-07-10T02:09:56;12.10;99.90
16823;DHT22;8528;49.976;11.858;2022-07-10T02:12:22;12.00;99.90
16823;DHT22;8528;49.976;11.858;2022-07-10T02:14:49;11.90;99.90
16823;DHT22;8528;49.976;11.858;2022-07-10T02:17:16;11.90;99.90
16823;DHT22;8528;49.976;11.858;2022-07-10T02:19:47;11.80;99.90
16823;DHT22;8528;49.976;11.858;2022-07-10T02:22:17;11.80;99.90
16823;DHT22;8528;49.976;11.858;2022-07-10T02:24:47;11.70;99.90
16823;DHT22;8528;49.976;11.858;2022-07-10T02:27:14;11.70;99.90
16823;DHT22;8528;49.976;11.858;2022-07-10T02:29:41;11.70;99.90
16823;DHT22;8528;49.976;11.858;2022-07-10T02:32:07;11.60;99.90
16823;DHT22;8528;49.976;11.858;2022-07-10T02:34:34;11.60;99.90
16823;DHT22;8528;49.976;11.858;2022-07-10T02:37:04;11.70;99.90
16823;DHT22;8528;49.976;11.858;2022-07-10T02:39:31;11.60;99.90
16823;DHT22;8528;49.976;11.858;2022-07-10T02:41:58;11.60;99.90
16823;DHT22;8528;49.976;11.858;2022-07-10T02:44:25;11.50;99.90
16823;DHT22;8528;49.976;11.858;2022-07-10T02:46:54;11.50;99.90
16823;DHT22;8528;49.976;11.858;2022-07-10T02:49:24;11.50;99.90
16823;DHT22;8528;49.976;11.858;2022-07-10T02:51:54;11.50;99.90
16823;DHT22;8528;49.976;11.858;2022-07-10T02:54:21;11.50;99.90
16823;DHT22;8528;49.976;11.858;2022-07-10T02:56:48;11.50;99.90
16823;DHT22;8528;49.976;11.858;2022-07-10T02:59:18;11.50;99.90
16823;DHT22;8528;49.976;11.858;2022-07-10T03:01:45;11.50;99.90
16823;DHT22;8528;49.976;11.858;2022-07-10T03:04:12;11.50;99.90
16823;DHT22;8528;49.976;11.858;2022-07-10T03:06:42;11.40;99.90
16823;DHT22;8528;49.976;11.858;2022-07-10T03:09:09;11.40;99.90
16823;DHT22;8528;49.976;11.858;2022-07-10T03:11:39;11.30;99.90
16823;DHT22;8528;49.976;11.858;2022-07-10T03:14:06;11.30;99.90
16823;DHT22;8528;49.976;11.858;2022-07-10T03:16:32;11.30;99.90
16823;DHT22;8528;49.976;11.858;2022-07-10T03:18:59;11.30;99.90
16823;DHT22;8528;49.976;11.858;2022-07-10T03:21:26;11.20;99.90
16823;DHT22;8528;49.976;11.858;2022-07-10T03:23:53;11.10;99.90
16823;DHT22;8528;49.976;11.858;2022-07-10T03:26:20;11.10;99.90
16823;DHT22;8528;49.976;11.858;2022-07-10T03:28:56;11.10;99.90
16823;DHT22;8528;49.976;11.858;2022-07-10T03:31:27;11.00;99.90
16823;DHT22;8528;49.976;11.858;2022-07-10T03:33:54;11.10;99.90
16823;DHT22;8528;49.976;11.858;2022-07-10T03:36:21;11.00;99.90
16823;DHT22;8528;49.976;11.858;2022-07-10T03:38:54;10.90;99.90
16823;DHT22;8528;49.976;11.858;2022-07-10T03:41:20;10.90;99.90
16823;DHT22;8528;49.976;11.858;2022-07-10T03:43:47;10.80;99.90
16823;DHT22;8528;49.976;11.858;2022-07-10T03:46:14;10.70;99.90
16823;DHT22;8528;49.976;11.858;2022-07-10T03:48:41;10.50;99.90
16823;DHT22;8528;49.976;11.858;2022-07-10T03:51:08;10.40;99.90
16823;DHT22;8528;49.976;11.858;2022-07-10T03:53:38;10.30;99.90
16823;DHT22;8528;49.976;11.858;2022-07-10T03:56:11;10.20;99.90
16823;DHT22;8528;49.976;11.858;2022-07-10T03:58:58;10.20;99.90
16823;DHT22;8528;49.976;11.858;2022-07-10T04:01:24;10.20;99.90
16823;DHT22;8528;49.976;11.858;2022-07-10T04:03:51;10.10;99.90
16823;DHT22;8528;49.976;11.858;2022-07-10T04:06:21;10.20;99.90
16823;DHT22;8528;49.976;11.858;2022-07-10T04:08:49;10.30;99.90
16823;DHT22;8528;49.976;11.858;2022-07-10T04:11:18;10.30;99.90
16823;DHT22;8528;49.976;11.858;2022-07-10T04:13:44;10.40;99.90
16823;DHT22;8528;49.976;11.858;2022-07-10T04:16:14;10.40;99.90
16823;DHT22;8528;49.976;11.858;2022-07-10T04:18:42;10.40;99.90
16823;DHT22;8528;49.976;11.858;2022-07-10T04:21:11;10.40;99.90
16823;DHT22;8528;49.976;11.858;2022-07-10T04:23:40;10.50;99.90
16823;DHT22;8528;49.976;11.858;2022-07-10T04:26:10;10.40;99.90
16823;DHT22;8528;49.976;11.858;2022-07-10T04:28:37;10.50;99.90
16823;DHT22;8528;49.976;11.858;2022-07-10T04:31:10;10.40;99.90
16823;DHT22;8528;49.976;11.858;2022-07-10T04:33:37;10.40;99.90
16823;DHT22;8528;49.976;11.858;2022-07-10T04:36:04;10.50;99.90
16823;DHT22;8528;49.976;11.858;2022-07-10T04:38:31;10.50;99.90
16823;DHT22;8528;49.976;11.858;2022-07-10T04:40:59;10.60;99.90
16823;DHT22;8528;49.976;11.858;2022-07-10T04:43:26;10.70;99.90
16823;DHT22;8528;49.976;11.858;2022-07-10T04:45:53;10.70;99.90
16823;DHT22;8528;49.976;11.858;2022-07-10T04:48:26;10.90;99.90
16823;DHT22;8528;49.976;11.858;2022-07-10T04:50:53;10.90;99.90
16823;DHT22;8528;49.976;11.858;2022-07-10T04:53:20;11.00;99.90
16823;DHT22;8528;49.976;11.858;2022-07-10T04:55:47;11.00;99.90
16823;DHT22;8528;49.976;11.858;2022-07-10T04:58:14;11.10;99.90
16823;DHT22;8528;49.976;11.858;2022-07-10T05:00:41;11.10;99.90
16823;DHT22;8528;49.976;11.858;2022-07-10T05:03:11;11.10;99.90
16823;DHT22;8528;49.976;11.858;2022-07-10T05:05:38;11.20;99.90
16823;DHT22;8528;49.976;11.858;2022-07-10T05:08:05;11.20;99.90
16823;DHT22;8528;49.976;11.858;2022-07-10T05:10:31;11.30;99.90
16823;DHT22;8528;49.976;11.858;2022-07-10T05:12:58;11.30;99.90
16823;DHT22;8528;49.976;11.858;2022-07-10T05:15:28;11.40;99.90
16823;DHT22;8528;49.976;11.858;2022-07-10T05:17:55;11.40;99.90
16823;DHT22;8528;49.976;11.858;2022-07-10T05:20:22;11.40;99.90
16823;DHT22;8528;49.976;11.858;2022-07-10T05:22:52;11.40;99.90
16823;DHT22;8528;49.976;11.858;2022-07-10T05:25:19;11.50;99.90
16823;DHT22;8528;49.976;11.858;2022-07-10T05:27:46;11.50;99.90
16823;DHT22;8528;49.976;11.858;2022-07-10T05:30:15;11.50;99.90
16823;DHT22;8528;49.976;11.858;2022-07-10T05:32:49;11.60;99.90
16823;DHT22;8528;49.976;11.858;2022-07-10T05:35:16;11.70;99.90
16823;DHT22;8528;49.976;11.858;2022-07-10T05:37:43;11.70;99.90
16823;DHT22;8528;49.976;11.858;2022-07-10T05:40:10;11.60;99.90
16823;DHT22;8528;49.976;11.858;2022-07-10T05:42:37;11.40;99.90
16823;DHT22;8528;49.976;11.858;2022-07-10T05:45:07;11.40;99.90
16823;DHT22;8528;49.976;11.858;2022-07-10T05:47:34;11.40;99.90
16823;DHT22;8528;49.976;11.858;2022-07-10T05:50:01;11.50;99.90
16823;DHT22;8528;49.976;11.858;2022-07-10T05:52:34;11.60;99.90
16823;DHT22;8528;49.976;11.858;2022-07-10T05:55:01;11.60;99.90
16823;DHT22;8528;49.976;11.858;2022-07-10T05:57:32;11.80;99.90
16823;DHT22;8528;49.976;11.858;2022-07-10T06:00:03;12.00;99.90
16823;DHT22;8528;49.976;11.858;2022-07-10T06:02:34;12.20;99.90
16823;DHT22;8528;49.976;11.858;2022-07-10T06:05:00;12.30;99.90
16823;DHT22;8528;49.976;11.858;2022-07-10T06:07:27;12.40;99.90
16823;DHT22;8528;49.976;11.858;2022-07-10T06:09:54;12.60;99.90
16823;DHT22;8528;49.976;11.858;2022-07-10T06:12:22;12.60;99.90
16823;DHT22;8528;49.976;11.858;2022-07-10T06:14:56;12.60;99.90
16823;DHT22;8528;49.976;11.858;2022-07-10T06:17:24;12.80;99.90
16823;DHT22;8528;49.976;11.858;2022-07-10T06:19:53;12.90;99.90
16823;DHT22;8528;49.976;11.858;2022-07-10T06:22:21;13.00;99.90
16823;DHT22;8528;49.976;11.858;2022-07-10T06:25:07;13.00;99.90
16823;DHT22;8528;49.976;11.858;2022-07-10T06:27:37;12.90;99.90
16823;DHT22;8528;49.976;11.858;2022-07-10T06:30:06;12.90;99.90
16823;DHT22;8528;49.976;11.858;2022-07-10T06:32:36;13.10;99.90
16823;DHT22;8528;49.976;11.858;2022-07-10T06:35:03;13.30;99.90
16823;DHT22;8528;49.976;11.858;2022-07-10T06:37:30;13.50;99.90
16823;DHT22;8528;49.976;11.858;2022-07-10T06:39:57;13.60;99.90
16823;DHT22;8528;49.976;11.858;2022-07-10T06:42:24;13.70;99.90
16823;DHT22;8528;49.976;11.858;2022-07-10T06:44:51;13.80;99.90
16823;DHT22;8528;49.976;11.858;2022-07-10T06:47:19;13.70;99.90
16823;DHT22;8528;49.976;11.858;2022-07-10T06:50:09;13.20;99.90
16823;DHT22;8528;49.976;11.858;2022-07-10T06:52:36;12.90;99.90
16823;DHT22;8528;49.976;11.858;2022-07-10T06:55:03;13.10;99.90
16823;DHT22;8528;49.976;11.858;2022-07-10T06:57:31;13.40;99.90
16823;DHT22;8528;49.976;11.858;2022-07-10T06:59:58;13.60;99.90
16823;DHT22;8528;49.976;11.858;2022-07-10T07:02:25;13.50;99.90
16823;DHT22;8528;49.976;11.858;2022-07-10T07:05:01;13.40;99.90
16823;DHT22;8528;49.976;11.858;2022-07-10T07:07:28;13.40;99.90
16823;DHT22;8528;49.976;11.858;2022-07-10T07:09:55;13.50;99.90
16823;DHT22;8528;49.976;11.858;2022-07-10T07:12:22;13.70;99.90
16823;DHT22;8528;49.976;11.858;2022-07-10T07:14:49;13.80;99.90
16823;DHT22;8528;49.976;11.858;2022-07-10T07:17:16;13.60;99.90
16823;DHT22;8528;49.976;11.858;2022-07-10T07:19:55;13.60;99.90
16823;DHT22;8528;49.976;11.858;2022-07-10T07:22:41;13.90;99.90
16823;DHT22;8528;49.976;11.858;2022-07-10T07:25:26;14.40;99.90
16823;DHT22;8528;49.976;11.858;2022-07-10T07:28:01;14.60;99.90
16823;DHT22;8528;49.976;11.858;2022-07-10T07:30:28;14.70;99.90
16823;DHT22;8528;49.976;11.858;2022-07-10T07:33:01;14.70;99.90
16823;DHT22;8528;49.976;11.858;2022-07-10T07:35:28;14.30;99.90
16823;DHT22;8528;49.976;11.858;2022-07-10T07:37:55;14.00;99.90
16823;DHT22;8528;49.976;11.858;2022-07-10T07:40:22;13.80;99.90
16823;DHT22;8528;49.976;11.858;2022-07-10T07:42:53;13.80;99.90
16823;DHT22;8528;49.976;11.858;2022-07-10T07:45:24;14.10;99.90
16823;DHT22;8528;49.976;11.858;2022-07-10T07:47:53;14.30;99.90
16823;DHT22;8528;49.976;11.858;2022-07-10T07:50:29;14.20;99.90
16823;DHT22;8528;49.976;11.858;2022-07-10T07:53:00;13.80;99.90
16823;DHT22;8528;49.976;11.858;2022-07-10T07:55:28;13.60;99.90
16823;DHT22;8528;49.976;11.858;2022-07-10T07:57:58;13.30;99.90
16823;DHT22;8528;49.976;11.858;2022-07-10T08:00:27;13.00;99.90
16823;DHT22;8528;49.976;11.858;2022-07-10T08:03:00;12.90;99.90
16823;DHT22;8528;49.976;11.858;2022-07-10T08:05:28;12.90;99.90
16823;DHT22;8528;49.976;11.858;2022-07-10T08:07:57;12.80;99.90
16823;DHT22;8528;49.976;11.858;2022-07-10T08:10:26;12.90;99.90
16823;DHT22;8528;49.976;11.858;2022-07-10T08:12:53;13.00;99.90
16823;DHT22;8528;49.976;11.858;2022-07-10T08:15:21;13.10;99.90
16823;DHT22;8528;49.976;11.858;2022-07-10T08:17:53;13.20;99.90
16823;DHT22;8528;49.976;11.858;2022-07-10T08:20:25;13.20;99.90
16823;DHT22;8528;49.976;11.858;2022-07-10T08:22:52;13.30;99.90
16823;DHT22;8528;49.976;11.858;2022-07-10T08:25:29;13.40;99.90
16823;DHT22;8528;49.976;11.858;2022-07-10T08:28:03;13.40;99.90
16823;DHT22;8528;49.976;11.858;2022-07-10T08:30:30;13.60;99.90
16823;DHT22;8528;49.976;11.858;2022-07-10T08:32:59;13.60;99.90
16823;DHT22;8528;49.976;11.858;2022-07-10T08:35:28;13.90;99.90
16823;DHT22;8528;49.976;11.858;2022-07-10T08:37:55;13.90;99.90
16823;DHT22;8528;49.976;11.858;2022-07-10T08:40:22;13.90;99.90
16823;DHT22;8528;49.976;11.858;2022-07-10T08:42:52;13.90;99.90
16823;DHT22;8528;49.976;11.858;2022-07-10T08:45:19;13.70;99.90
16823;DHT22;8528;49.976;11.858;2022-07-10T08:48:02;13.80;99.90
16823;DHT22;8528;49.976;11.858;2022-07-10T08:50:33;14.00;99.90
16823;DHT22;8528;49.976;11.858;2022-07-10T08:55:55;13.90;99.90
16823;DHT22;8528;49.976;11.858;2022-07-10T08:58:22;13.70;99.90
16823;DHT22;8528;49.976;11.858;2022-07-10T09:00:49;13.80;99.90
16823;DHT22;8528;49.976;11.858;2022-07-10T09:03:16;14.00;99.90
16823;DHT22;8528;49.976;11.858;2022-07-10T09:05:44;14.20;99.90
16823;DHT22;8528;49.976;11.858;2022-07-10T09:08:24;14.40;99.90
16823;DHT22;8528;49.976;11.858;2022-07-10T09:11:17;14.30;99.90
16823;DHT22;8528;49.976;11.858;2022-07-10T09:13:53;14.10;99.90
16823;DHT22;8528;49.976;11.858;2022-07-10T09:16:31;13.80;99.90
16823;DHT22;8528;49.976;11.858;2022-07-10T09:21:41;13.80;99.90
16823;DHT22;8528;49.976;11.858;2022-07-10T09:24:08;14.20;99.90
16823;DHT22;8528;49.976;11.858;2022-07-10T09:26:36;14.30;99.90
16823;DHT22;8528;49.976;11.858;2022-07-10T09:29:11;14.40;99.90
16823;DHT22;8528;49.976;11.858;2022-07-10T09:31:55;14.40;99.90
16823;DHT22;8528;49.976;11.858;2022-07-10T09:34:45;14.60;99.90
16823;DHT22;8528;49.976;11.858;2022-07-10T09:39:52;14.70;99.90
16823;DHT22;8528;49.976;11.858;2022-07-10T09:45:17;15.20;99.90
16823;DHT22;8528;49.976;11.858;2022-07-10T09:47:58;15.20;99.90
16823;DHT22;8528;49.976;11.858;2022-07-10T09:50:32;15.20;99.90
16823;DHT22;8528;49.976;11.858;2022-07-10T09:53:02;15.10;99.90
16823;DHT22;8528;49.976;11.858;2022-07-10T09:55:37;15.00;99.90
16823;DHT22;8528;49.976;11.858;2022-07-10T09:58:08;15.00;99.90
16823;DHT22;8528;49.976;11.858;2022-07-10T10:00:40;15.40;99.90
16823;DHT22;8528;49.976;11.858;2022-07-10T10:03:10;15.90;99.90
16823;DHT22;8528;49.976;11.858;2022-07-10T10:05:45;16.20;99.90
16823;DHT22;8528;49.976;11.858;2022-07-10T10:08:31;16.20;99.90
16823;DHT22;8528;49.976;11.858;2022-07-10T10:11:03;15.60;99.90
16823;DHT22;8528;49.976;11.858;2022-07-10T10:13:30;15.30;99.90
16823;DHT22;8528;49.976;11.858;2022-07-10T10:16:01;15.30;99.90
16823;DHT22;8528;49.976;11.858;2022-07-10T10:18:36;15.20;99.90
16823;DHT22;8528;49.976;11.858;2022-07-10T10:21:17;15.20;99.90
16823;DHT22;8528;49.976;11.858;2022-07-10T10:23:44;15.00;99.90
16823;DHT22;8528;49.976;11.858;2022-07-10T10:26:12;14.90;99.90
16823;DHT22;8528;49.976;11.858;2022-07-10T10:28:39;14.80;99.90
16823;DHT22;8528;49.976;11.858;2022-07-10T10:31:08;15.00;99.90
16823;DHT22;8528;49.976;11.858;2022-07-10T10:33:47;15.10;99.90
16823;DHT22;8528;49.976;11.858;2022-07-10T10:39:23;15.30;99.90
16823;DHT22;8528;49.976;11.858;2022-07-10T10:41:51;15.70;99.90
16823;DHT22;8528;49.976;11.858;2022-07-10T10:44:19;15.90;99.90
16823;DHT22;8528;49.976;11.858;2022-07-10T10:47:01;15.90;99.90
16823;DHT22;8528;49.976;11.858;2022-07-10T10:49:54;15.70;99.90
16823;DHT22;8528;49.976;11.858;2022-07-10T10:52:23;15.70;99.90
16823;DHT22;8528;49.976;11.858;2022-07-10T11:00:32;16.30;99.90
16823;DHT22;8528;49.976;11.858;2022-07-10T11:03:23;16.60;99.90
16823;DHT22;8528;49.976;11.858;2022-07-10T11:05:54;16.80;99.90
16823;DHT22;8528;49.976;11.858;2022-07-10T11:08:41;16.70;99.90
16823;DHT22;8528;49.976;11.858;2022-07-10T11:14:03;15.80;99.90
16823;DHT22;8528;49.976;11.858;2022-07-10T11:16:31;15.30;99.90
16823;DHT22;8528;49.976;11.858;2022-07-10T11:19:00;15.00;99.90
16823;DHT22;8528;49.976;11.858;2022-07-10T11:21:46;14.80;99.90
16823;DHT22;8528;49.976;11.858;2022-07-10T11:24:45;14.40;99.90
16823;DHT22;8528;49.976;11.858;2022-07-10T11:27:34;14.00;99.90
16823;DHT22;8528;49.976;11.858;2022-07-10T11:30:06;14.00;99.90
16823;DHT22;8528;49.976;11.858;2022-07-10T11:32:33;14.30;99.90
16823;DHT22;8528;49.976;11.858;2022-07-10T11:35:06;14.60;99.90
16823;DHT22;8528;49.976;11.858;2022-07-10T11:37:34;15.10;99.90
16823;DHT22;8528;49.976;11.858;2022-07-10T11:40:09;15.40;99.90
16823;DHT22;8528;49.976;11.858;2022-07-10T11:42:50;15.90;99.90
16823;DHT22;8528;49.976;11.858;2022-07-10T11:45:28;16.10;99.90
16823;DHT22;8528;49.976;11.858;2022-07-10T11:47:56;16.00;99.90
16823;DHT22;8528;49.976;11.858;2022-07-10T11:50:26;16.10;99.90
16823;DHT22;8528;49.976;11.858;2022-07-10T11:52:55;15.90;99.90
16823;DHT22;8528;49.976;11.858;2022-07-10T11:55:23;15.40;99.90
16823;DHT22;8528;49.976;11.858;2022-07-10T11:57:53;15.20;99.90
16823;DHT22;8528;49.976;11.858;2022-07-10T12:00:21;15.10;99.90
16823;DHT22;8528;49.976;11.858;2022-07-10T12:02:51;14.80;99.90
16823;DHT22;8528;49.976;11.858;2022-07-10T12:05:31;14.80;99.90
16823;DHT22;8528;49.976;11.858;2022-07-10T12:08:02;14.90;99.90
16823;DHT22;8528;49.976;11.858;2022-07-10T12:10:30;15.00;99.90
16823;DHT22;8528;49.976;11.858;2022-07-10T12:13:12;15.10;99.90
16823;DHT22;8528;49.976;11.858;2022-07-10T12:15:41;15.20;99.90
16823;DHT22;8528;49.976;11.858;2022-07-10T12:18:14;15.50;99.90
16823;DHT22;8528;49.976;11.858;2022-07-10T12:20:44;16.10;99.90
16823;DHT22;8528;49.976;11.858;2022-07-10T12:23:18;16.50;99.90
16823;DHT22;8528;49.976;11.858;2022-07-10T12:25:47;16.70;99.90
16823;DHT22;8528;49.976;11.858;2022-07-10T12:28:21;16.70;99.90
16823;DHT22;8528;49.976;11.858;2022-07-10T12:30:49;17.00;99.90
16823;DHT22;8528;49.976;11.858;2022-07-10T12:33:20;17.10;99.90
16823;DHT22;8528;49.976;11.858;2022-07-10T12:38:22;16.60;99.90
16823;DHT22;8528;49.976;11.858;2022-07-10T12:40:50;16.40;99.90
16823;DHT22;8528;49.976;11.858;2022-07-10T12:43:27;16.20;99.90
16823;DHT22;8528;49.976;11.858;2022-07-10T12:46:20;15.90;99.90
16823;DHT22;8528;49.976;11.858;2022-07-10T12:49:08;15.60;99.90
16823;DHT22;8528;49.976;11.858;2022-07-10T12:51:46;15.40;99.90
16823;DHT22;8528;49.976;11.858;2022-07-10T12:54:37;15.50;99.90
16823;DHT22;8528;49.976;11.858;2022-07-10T12:57:05;15.50;99.90
16823;DHT22;8528;49.976;11.858;2022-07-10T12:59:36;15.70;99.90
16823;DHT22;8528;49.976;11.858;2022-07-10T13:02:22;16.30;99.90
16823;DHT22;8528;49.976;11.858;2022-07-10T13:04:53;16.70;99.90
16823;DHT22;8528;49.976;11.858;2022-07-10T13:07:35;16.50;99.90
16823;DHT22;8528;49.976;11.858;2022-07-10T13:10:04;16.20;99.90
16823;DHT22;8528;49.976;11.858;2022-07-10T13:12:34;15.90;99.90
16823;DHT22;8528;49.976;11.858;2022-07-10T13:15:02;16.00;99.90
16823;DHT22;8528;49.976;11.858;2022-07-10T13:17:30;16.20;99.90
16823;DHT22;8528;49.976;11.858;2022-07-10T13:19:57;16.30;99.90
16823;DHT22;8528;49.976;11.858;2022-07-10T13:22:24;16.50;99.90
16823;DHT22;8528;49.976;11.858;2022-07-10T13:24:51;16.80;99.90
16823;DHT22;8528;49.976;11.858;2022-07-10T13:27:18;17.20;99.90
16823;DHT22;8528;49.976;11.858;2022-07-10T13:30:01;17.70;99.20
16823;DHT22;8528;49.976;11.858;2022-07-10T13:32:28;17.80;98.80
16823;DHT22;8528;49.976;11.858;2022-07-10T13:34:56;18.00;99.20
16823;DHT22;8528;49.976;11.858;2022-07-10T13:37:22;17.50;97.40
16823;DHT22;8528;49.976;11.858;2022-07-10T13:39:49;17.10;98.50
16823;DHT22;8528;49.976;11.858;2022-07-10T13:42:16;16.80;99.10
16823;DHT22;8528;49.976;11.858;2022-07-10T13:44:43;16.80;99.60
16823;DHT22;8528;49.976;11.858;2022-07-10T13:47:13;16.80;99.20
16823;DHT22;8528;49.976;11.858;2022-07-10T13:49:42;16.90;99.20
16823;DHT22;8528;49.976;11.858;2022-07-10T13:52:09;16.80;99.10
16823;DHT22;8528;49.976;11.858;2022-07-10T13:54:36;16.80;99.90
16823;DHT22;8528;49.976;11.858;2022-07-10T13:57:03;17.00;99.70
16823;DHT22;8528;49.976;11.858;2022-07-10T13:59:30;16.90;99.90
16823;DHT22;8528;49.976;11.858;2022-07-10T14:01:57;16.90;99.90
16823;DHT22;8528;49.976;11.858;2022-07-10T14:04:24;17.10;99.90
16823;DHT22;8528;49.976;11.858;2022-07-10T14:06:54;17.40;99.30
16823;DHT22;8528;49.976;11.858;2022-07-10T14:09:21;17.40;98.30
16823;DHT22;8528;49.976;11.858;2022-07-10T14:11:50;17.40;98.00
16823;DHT22;8528;49.976;11.858;2022-07-10T14:14:17;17.30;98.60
16823;DHT22;8528;49.976;11.858;2022-07-10T14:16:46;17.30;98.90
16823;DHT22;8528;49.976;11.858;2022-07-10T14:19:13;17.20;97.30
16823;DHT22;8528;49.976;11.858;2022-07-10T14:21:40;17.50;98.10
16823;DHT22;8528;49.976;11.858;2022-07-10T14:24:10;18.30;97.60
16823;DHT22;8528;49.976;11.858;2022-07-10T14:26:37;18.40;95.60
16823;DHT22;8528;49.976;11.858;2022-07-10T14:29:04;18.00;94.10
16823;DHT22;8528;49.976;11.858;2022-07-10T14:31:31;17.90;95.00
16823;DHT22;8528;49.976;11.858;2022-07-10T14:34:01;17.90;96.60
16823;DHT22;8528;49.976;11.858;2022-07-10T14:36:28;18.00;95.90
16823;DHT22;8528;49.976;11.858;2022-07-10T14:38:55;17.80;95.80
16823;DHT22;8528;49.976;11.858;2022-07-10T14:41:24;18.00;96.10
16823;DHT22;8528;49.976;11.858;2022-07-10T14:43:51;18.60;95.00
16823;DHT22;8528;49.976;11.858;2022-07-10T14:46:21;19.60;93.60
16823;DHT22;8528;49.976;11.858;2022-07-10T14:48:50;20.20;89.40
16823;DHT22;8528;49.976;11.858;2022-07-10T14:51:17;19.80;89.00
16823;DHT22;8528;49.976;11.858;2022-07-10T14:53:50;19.10;90.10
16823;DHT22;8528;49.976;11.858;2022-07-10T14:56:17;18.60;91.20
16823;DHT22;8528;49.976;11.858;2022-07-10T14:58:46;18.30;93.50
16823;DHT22;8528;49.976;11.858;2022-07-10T15:01:33;18.10;93.50
16823;DHT22;8528;49.976;11.858;2022-07-10T15:04:00;17.70;94.50
16823;DHT22;8528;49.976;11.858;2022-07-10T15:06:27;17.50;94.20
16823;DHT22;8528;49.976;11.858;2022-07-10T15:08:54;18.40;93.60
16823;DHT22;8528;49.976;11.858;2022-07-10T15:11:21;19.80;91.30
16823;DHT22;8528;49.976;11.858;2022-07-10T15:13:52;20.40;83.90
16823;DHT22;8528;49.976;11.858;2022-07-10T15:16:27;21.50;80.40
16823;DHT22;8528;49.976;11.858;2022-07-10T15:18:54;22.50;74.50
16823;DHT22;8528;49.976;11.858;2022-07-10T15:21:21;23.40;69.60
16823;DHT22;8528;49.976;11.858;2022-07-10T15:23:48;23.30;67.60
16823;DHT22;8528;49.976;11.858;2022-07-10T15:26:15;22.50;69.40
16823;DHT22;8528;49.976;11.858;2022-07-10T15:28:46;22.50;68.80
16823;DHT22;8528;49.976;11.858;2022-07-10T15:31:16;23.10;66.60
16823;DHT22;8528;49.976;11.858;2022-07-10T15:33:43;23.80;61.50
16823;DHT22;8528;49.976;11.858;2022-07-10T15:36:12;22.90;63.00
16823;DHT22;8528;49.976;11.858;2022-07-10T15:38:42;22.00;65.60
16823;DHT22;8528;49.976;11.858;2022-07-10T15:41:09;20.60;68.70
16823;DHT22;8528;49.976;11.858;2022-07-10T15:43:36;20.20;71.70
16823;DHT22;8528;49.976;11.858;2022-07-10T15:46:03;20.30;70.40
16823;DHT22;8528;49.976;11.858;2022-07-10T15:48:32;20.70;69.90
16823;DHT22;8528;49.976;11.858;2022-07-10T15:50:59;20.40;70.40
16823;DHT22;8528;49.976;11.858;2022-07-10T15:53:26;20.10;72.70
16823;DHT22;8528;49.976;11.858;2022-07-10T15:55:53;19.40;73.50
16823;DHT22;8528;49.976;11.858;2022-07-10T15:58:20;18.80;75.60
16823;DHT22;8528;49.976;11.858;2022-07-10T16:00:46;18.00;78.90
16823;DHT22;8528;49.976;11.858;2022-07-10T16:03:16;18.00;80.70
16823;DHT22;8528;49.976;11.858;2022-07-10T16:05:43;19.20;77.70
16823;DHT22;8528;49.976;11.858;2022-07-10T16:08:10;19.80;74.50
16823;DHT22;8528;49.976;11.858;2022-07-10T16:10:38;19.90;74.50
16823;DHT22;8528;49.976;11.858;2022-07-10T16:13:05;19.30;76.40
16823;DHT22;8528;49.976;11.858;2022-07-10T16:15:34;18.70;78.00
16823;DHT22;8528;49.976;11.858;2022-07-10T16:18:05;18.80;76.90
16823;DHT22;8528;49.976;11.858;2022-07-10T16:20:31;20.20;74.10